sensor_id;sensor_type;location;lat;lon;timestamp;P1;durP1;ratioP1;P2;durP2;ratioP2
37763;SDS011;23602;51.084;7.090;2022-11-14T00:00:42;4.22;;;1.38;;
37763;SDS011;23602;51.084;7.090;2022-11-14T00:03:09;5.03;;;2.17;;
37763;SDS011;23602;51.084;7.090;2022-11-14T00:05:39;6.35;;;1.58;;
37763;SDS011;23602;51.084;7.090;2022-11-14T00:08:21;5.53;;;1.60;;
37763;SDS011;23602;51.084;7.090;2022-11-14T00:10:49;3.00;;;1.77;;
37763;SDS011;23602;51.084;7.090;2022-11-14T00:13:16;4.07;;;1.93;;
37763;SDS011;23602;51.084;7.090;2022-11-14T00:15:42;17.65;;;1.25;;
37763;SDS011;23602;51.084;7.090;2022-11-14T00:18:18;3.85;;;2.10;;
37763;SDS011;23602;51.084;7.090;2022-11-14T00:20:46;4.28;;;2.20;;
37763;SDS011;23602;51.084;7.090;2022-11-14T00:23:12;3.78;;;1.60;;
37763;SDS011;23602;51.084;7.090;2022-11-14T00:25:38;4.38;;;1.80;;
37763;SDS011;23602;51.084;7.090;2022-11-14T00:28:03;4.05;;;1.65;;
37763;SDS011;23602;51.084;7.090;2022-11-14T00:30:28;2.83;;;1.52;;
37763;SDS011;23602;51.084;7.090;2022-11-14T00:32:54;2.25;;;1.67;;
37763;SDS011;23602;51.084;7.090;2022-11-14T00:35:22;3.58;;;1.70;;
37763;SDS011;23602;51.084;7.090;2022-11-14T00:37:47;3.33;;;1.70;;
37763;SDS011;23602;51.084;7.090;2022-11-14T00:40:13;7.13;;;2.10;;
37763;SDS011;23602;51.084;7.090;2022-11-14T00:42:38;4.43;;;2.03;;
37763;SDS011;23602;51.084;7.090;2022-11-14T00:45:04;5.40;;;3.05;;
37763;SDS011;23602;51.084;7.090;2022-11-14T00:47:30;5.53;;;1.98;;
37763;SDS011;23602;51.084;7.090;2022-11-14T00:49:58;2.85;;;1.73;;
37763;SDS011;23602;51.084;7.090;2022-11-14T00:52:23;3.90;;;2.10;;
37763;SDS011;23602;51.084;7.090;2022-11-14T00:54:49;3.97;;;1.52;;
37763;SDS011;23602;51.084;7.090;2022-11-14T00:57:14;4.65;;;2.00;;
37763;SDS011;23602;51.084;7.090;2022-11-14T00:59:40;5.05;;;2.08;;
37763;SDS011;23602;51.084;7.090;2022-11-14T01:02:05;5.50;;;2.30;;
37763;SDS011;23602;51.084;7.090;2022-11-14T01:04:31;5.75;;;1.85;;
37763;SDS011;23602;51.084;7.090;2022-11-14T01:06:56;4.75;;;1.92;;
37763;SDS011;23602;51.084;7.090;2022-11-14T01:09:22;6.25;;;2.50;;
37763;SDS011;23602;51.084;7.090;2022-11-14T01:12:00;3.90;;;2.10;;
37763;SDS011;23602;51.084;7.090;2022-11-14T01:14:25;3.78;;;2.05;;
37763;SDS011;23602;51.084;7.090;2022-11-14T01:16:51;3.45;;;2.00;;
37763;SDS011;23602;51.084;7.090;2022-11-14T01:19:16;3.67;;;2.08;;
37763;SDS011;23602;51.084;7.090;2022-11-14T01:21:42;3.38;;;2.40;;
37763;SDS011;23602;51.084;7.090;2022-11-14T01:24:07;7.88;;;2.28;;
37763;SDS011;23602;51.084;7.090;2022-11-14T01:26:33;3.80;;;2.22;;
37763;SDS011;23602;51.084;7.090;2022-11-14T01:28:58;3.60;;;2.17;;
37763;SDS011;23602;51.084;7.090;2022-11-14T01:31:23;2.97;;;2.10;;
37763;SDS011;23602;51.084;7.090;2022-11-14T01:33:50;3.22;;;2.00;;
37763;SDS011;23602;51.084;7.090;2022-11-14T01:36:17;5.72;;;2.10;;
37763;SDS011;23602;51.084;7.090;2022-11-14T01:38:43;2.75;;;1.90;;
37763;SDS011;23602;51.084;7.090;2022-11-14T01:41:11;10.02;;;3.58;;
37763;SDS011;23602;51.084;7.090;2022-11-14T01:43:40;4.18;;;2.60;;
37763;SDS011;23602;51.084;7.090;2022-11-14T01:49:00;4.45;;;2.03;;
37763;SDS011;23602;51.084;7.090;2022-11-14T01:54:37;3.30;;;2.10;;
37763;SDS011;23602;51.084;7.090;2022-11-14T01:57:08;4.90;;;2.40;;
37763;SDS011;23602;51.084;7.090;2022-11-14T01:59:39;5.70;;;2.70;;
37763;SDS011;23602;51.084;7.090;2022-11-14T02:02:14;3.67;;;2.00;;
37763;SDS011;23602;51.084;7.090;2022-11-14T02:04:42;5.82;;;2.40;;
37763;SDS011;23602;51.084;7.090;2022-11-14T02:07:11;16.10;;;5.00;;
37763;SDS011;23602;51.084;7.090;2022-11-14T02:09:40;8.98;;;3.33;;
37763;SDS011;23602;51.084;7.090;2022-11-14T02:12:09;6.97;;;2.65;;
37763;SDS011;23602;51.084;7.090;2022-11-14T02:14:37;6.75;;;2.50;;
37763;SDS011;23602;51.084;7.090;2022-11-14T02:17:05;3.63;;;2.22;;
37763;SDS011;23602;51.084;7.090;2022-11-14T02:19:44;3.15;;;1.92;;
37763;SDS011;23602;51.084;7.090;2022-11-14T02:22:09;4.00;;;2.40;;
37763;SDS011;23602;51.084;7.090;2022-11-14T02:24:35;4.38;;;2.50;;
37763;SDS011;23602;51.084;7.090;2022-11-14T02:27:00;5.43;;;2.38;;
37763;SDS011;23602;51.084;7.090;2022-11-14T02:29:31;4.88;;;2.42;;
37763;SDS011;23602;51.084;7.090;2022-11-14T02:31:57;6.55;;;3.58;;
37763;SDS011;23602;51.084;7.090;2022-11-14T02:34:23;4.40;;;2.75;;
37763;SDS011;23602;51.084;7.090;2022-11-14T02:36:49;4.75;;;2.45;;
37763;SDS011;23602;51.084;7.090;2022-11-14T02:39:14;6.95;;;2.63;;
37763;SDS011;23602;51.084;7.090;2022-11-14T02:41:40;4.03;;;2.25;;
37763;SDS011;23602;51.084;7.090;2022-11-14T02:44:05;3.75;;;2.38;;
37763;SDS011;23602;51.084;7.090;2022-11-14T02:46:31;5.43;;;2.42;;
37763;SDS011;23602;51.084;7.090;2022-11-14T02:48:56;4.38;;;2.42;;
37763;SDS011;23602;51.084;7.090;2022-11-14T02:51:22;4.45;;;2.60;;
37763;SDS011;23602;51.084;7.090;2022-11-14T02:53:48;4.47;;;1.67;;
37763;SDS011;23602;51.084;7.090;2022-11-14T02:56:14;4.00;;;2.53;;
37763;SDS011;23602;51.084;7.090;2022-11-14T02:58:39;4.90;;;2.47;;
37763;SDS011;23602;51.084;7.090;2022-11-14T03:01:05;7.85;;;3.10;;
37763;SDS011;23602;51.084;7.090;2022-11-14T03:03:30;6.22;;;2.72;;
37763;SDS011;23602;51.084;7.090;2022-11-14T03:05:59;4.10;;;2.75;;
37763;SDS011;23602;51.084;7.090;2022-11-14T03:08:27;6.93;;;2.30;;
37763;SDS011;23602;51.084;7.090;2022-11-14T03:10:53;4.38;;;2.55;;
37763;SDS011;23602;51.084;7.090;2022-11-14T03:13:18;4.70;;;2.83;;
37763;SDS011;23602;51.084;7.090;2022-11-14T03:15:44;4.63;;;2.83;;
37763;SDS011;23602;51.084;7.090;2022-11-14T03:18:10;5.80;;;2.78;;
37763;SDS011;23602;51.084;7.090;2022-11-14T03:20:36;6.45;;;2.75;;
37763;SDS011;23602;51.084;7.090;2022-11-14T03:23:02;5.32;;;2.90;;
37763;SDS011;23602;51.084;7.090;2022-11-14T03:25:27;8.65;;;3.15;;
37763;SDS011;23602;51.084;7.090;2022-11-14T03:27:53;4.57;;;2.70;;
37763;SDS011;23602;51.084;7.090;2022-11-14T03:30:24;4.93;;;3.28;;
37763;SDS011;23602;51.084;7.090;2022-11-14T03:32:49;6.70;;;3.28;;
37763;SDS011;23602;51.084;7.090;2022-11-14T03:37:44;4.50;;;2.97;;
37763;SDS011;23602;51.084;7.090;2022-11-14T03:40:10;5.53;;;3.00;;
37763;SDS011;23602;51.084;7.090;2022-11-14T03:42:35;8.20;;;3.45;;
37763;SDS011;23602;51.084;7.090;2022-11-14T03:45:01;5.68;;;3.08;;
37763;SDS011;23602;51.084;7.090;2022-11-14T03:47:27;4.45;;;2.92;;
37763;SDS011;23602;51.084;7.090;2022-11-14T03:49:52;6.35;;;3.33;;
37763;SDS011;23602;51.084;7.090;2022-11-14T03:52:18;5.65;;;3.25;;
37763;SDS011;23602;51.084;7.090;2022-11-14T03:54:47;8.75;;;2.80;;
37763;SDS011;23602;51.084;7.090;2022-11-14T03:57:16;5.28;;;3.00;;
37763;SDS011;23602;51.084;7.090;2022-11-14T03:59:50;7.10;;;3.85;;
37763;SDS011;23602;51.084;7.090;2022-11-14T04:02:16;4.80;;;3.13;;
37763;SDS011;23602;51.084;7.090;2022-11-14T04:04:41;5.28;;;3.08;;
37763;SDS011;23602;51.084;7.090;2022-11-14T04:07:07;6.13;;;3.72;;
37763;SDS011;23602;51.084;7.090;2022-11-14T04:09:32;9.15;;;3.88;;
37763;SDS011;23602;51.084;7.090;2022-11-14T04:11:58;7.68;;;3.88;;
37763;SDS011;23602;51.084;7.090;2022-11-14T04:14:23;5.15;;;2.95;;
37763;SDS011;23602;51.084;7.090;2022-11-14T04:16:49;6.43;;;4.03;;
37763;SDS011;23602;51.084;7.090;2022-11-14T04:19:14;6.07;;;3.72;;
37763;SDS011;23602;51.084;7.090;2022-11-14T04:21:40;5.85;;;3.65;;
37763;SDS011;23602;51.084;7.090;2022-11-14T04:24:05;7.55;;;3.28;;
37763;SDS011;23602;51.084;7.090;2022-11-14T04:26:33;5.82;;;3.65;;
37763;SDS011;23602;51.084;7.090;2022-11-14T04:28:59;6.90;;;3.72;;
37763;SDS011;23602;51.084;7.090;2022-11-14T04:31:24;5.72;;;3.42;;
37763;SDS011;23602;51.084;7.090;2022-11-14T04:33:50;5.72;;;3.15;;
37763;SDS011;23602;51.084;7.090;2022-11-14T04:36:15;5.65;;;3.47;;
37763;SDS011;23602;51.084;7.090;2022-11-14T04:38:41;7.43;;;3.75;;
37763;SDS011;23602;51.084;7.090;2022-11-14T04:41:06;6.65;;;4.32;;
37763;SDS011;23602;51.084;7.090;2022-11-14T04:43:32;5.95;;;3.78;;
37763;SDS011;23602;51.084;7.090;2022-11-14T04:45:57;7.00;;;4.72;;
37763;SDS011;23602;51.084;7.090;2022-11-14T04:51:24;6.65;;;4.20;;
37763;SDS011;23602;51.084;7.090;2022-11-14T04:53:49;7.10;;;4.40;;
37763;SDS011;23602;51.084;7.090;2022-11-14T04:56:19;5.80;;;3.10;;
37763;SDS011;23602;51.084;7.090;2022-11-14T04:58:49;7.10;;;4.40;;
37763;SDS011;23602;51.084;7.090;2022-11-14T05:01:15;9.20;;;4.57;;
37763;SDS011;23602;51.084;7.090;2022-11-14T05:03:42;12.18;;;4.70;;
37763;SDS011;23602;51.084;7.090;2022-11-14T05:06:10;10.07;;;4.30;;
37763;SDS011;23602;51.084;7.090;2022-11-14T05:08:39;6.95;;;4.18;;
37763;SDS011;23602;51.084;7.090;2022-11-14T05:11:04;9.25;;;4.72;;
37763;SDS011;23602;51.084;7.090;2022-11-14T05:13:30;12.00;;;5.15;;
37763;SDS011;23602;51.084;7.090;2022-11-14T05:15:59;6.70;;;4.75;;
37763;SDS011;23602;51.084;7.090;2022-11-14T05:18:25;6.38;;;4.32;;
37763;SDS011;23602;51.084;7.090;2022-11-14T05:20:51;7.85;;;4.47;;
37763;SDS011;23602;51.084;7.090;2022-11-14T05:23:18;8.75;;;4.63;;
37763;SDS011;23602;51.084;7.090;2022-11-14T05:26:06;11.57;;;4.63;;
37763;SDS011;23602;51.084;7.090;2022-11-14T05:31:12;9.13;;;3.90;;
37763;SDS011;23602;51.084;7.090;2022-11-14T05:33:42;10.98;;;4.70;;
37763;SDS011;23602;51.084;7.090;2022-11-14T05:36:12;7.82;;;4.40;;
37763;SDS011;23602;51.084;7.090;2022-11-14T05:38:39;7.25;;;5.05;;
37763;SDS011;23602;51.084;7.090;2022-11-14T05:41:09;7.70;;;5.00;;
37763;SDS011;23602;51.084;7.090;2022-11-14T05:43:39;9.25;;;5.47;;
37763;SDS011;23602;51.084;7.090;2022-11-14T05:46:06;7.13;;;4.75;;
37763;SDS011;23602;51.084;7.090;2022-11-14T05:48:33;9.45;;;5.15;;
37763;SDS011;23602;51.084;7.090;2022-11-14T05:51:00;10.77;;;5.10;;
37763;SDS011;23602;51.084;7.090;2022-11-14T05:53:28;8.23;;;4.88;;
37763;SDS011;23602;51.084;7.090;2022-11-14T05:55:54;8.77;;;5.47;;
37763;SDS011;23602;51.084;7.090;2022-11-14T05:58:24;8.40;;;4.80;;
37763;SDS011;23602;51.084;7.090;2022-11-14T06:00:59;9.57;;;5.45;;
37763;SDS011;23602;51.084;7.090;2022-11-14T06:03:31;8.20;;;5.63;;
37763;SDS011;23602;51.084;7.090;2022-11-14T06:05:58;12.07;;;6.03;;
37763;SDS011;23602;51.084;7.090;2022-11-14T06:08:27;9.98;;;5.78;;
37763;SDS011;23602;51.084;7.090;2022-11-14T06:10:53;14.57;;;6.10;;
37763;SDS011;23602;51.084;7.090;2022-11-14T06:13:19;7.00;;;4.68;;
37763;SDS011;23602;51.084;7.090;2022-11-14T06:15:45;8.75;;;4.82;;
37763;SDS011;23602;51.084;7.090;2022-11-14T06:18:10;8.88;;;4.97;;
37763;SDS011;23602;51.084;7.090;2022-11-14T06:20:41;8.45;;;4.72;;
37763;SDS011;23602;51.084;7.090;2022-11-14T06:23:06;8.25;;;4.60;;
37763;SDS011;23602;51.084;7.090;2022-11-14T06:25:35;10.38;;;5.00;;
37763;SDS011;23602;51.084;7.090;2022-11-14T06:28:00;10.32;;;5.53;;
37763;SDS011;23602;51.084;7.090;2022-11-14T06:30:28;10.48;;;6.03;;
37763;SDS011;23602;51.084;7.090;2022-11-14T06:32:57;10.43;;;6.07;;
37763;SDS011;23602;51.084;7.090;2022-11-14T06:35:26;10.68;;;5.55;;
37763;SDS011;23602;51.084;7.090;2022-11-14T06:37:51;13.35;;;5.72;;
37763;SDS011;23602;51.084;7.090;2022-11-14T06:40:20;10.60;;;5.38;;
37763;SDS011;23602;51.084;7.090;2022-11-14T06:42:48;10.13;;;5.93;;
37763;SDS011;23602;51.084;7.090;2022-11-14T06:45:13;9.00;;;5.55;;
37763;SDS011;23602;51.084;7.090;2022-11-14T06:47:39;8.05;;;5.78;;
37763;SDS011;23602;51.084;7.090;2022-11-14T06:50:04;8.65;;;5.53;;
37763;SDS011;23602;51.084;7.090;2022-11-14T06:52:41;11.95;;;6.05;;
37763;SDS011;23602;51.084;7.090;2022-11-14T06:55:07;12.68;;;6.22;;
37763;SDS011;23602;51.084;7.090;2022-11-14T06:57:37;10.88;;;6.85;;
37763;SDS011;23602;51.084;7.090;2022-11-14T07:00:03;9.65;;;6.20;;
37763;SDS011;23602;51.084;7.090;2022-11-14T07:02:37;10.77;;;6.18;;
37763;SDS011;23602;51.084;7.090;2022-11-14T07:05:03;13.68;;;6.78;;
37763;SDS011;23602;51.084;7.090;2022-11-14T07:07:31;10.82;;;6.35;;
37763;SDS011;23602;51.084;7.090;2022-11-14T07:09:56;12.93;;;6.60;;
37763;SDS011;23602;51.084;7.090;2022-11-14T07:12:31;14.38;;;7.35;;
37763;SDS011;23602;51.084;7.090;2022-11-14T07:14:58;11.73;;;6.80;;
37763;SDS011;23602;51.084;7.090;2022-11-14T07:17:28;9.10;;;6.03;;
37763;SDS011;23602;51.084;7.090;2022-11-14T07:19:59;11.88;;;5.88;;
37763;SDS011;23602;51.084;7.090;2022-11-14T07:25:47;17.48;;;7.78;;
37763;SDS011;23602;51.084;7.090;2022-11-14T07:28:15;15.25;;;8.82;;
37763;SDS011;23602;51.084;7.090;2022-11-14T07:30:45;17.40;;;9.38;;
37763;SDS011;23602;51.084;7.090;2022-11-14T07:33:20;15.43;;;9.35;;
37763;SDS011;23602;51.084;7.090;2022-11-14T07:35:49;21.23;;;11.18;;
37763;SDS011;23602;51.084;7.090;2022-11-14T07:38:15;17.60;;;10.82;;
37763;SDS011;23602;51.084;7.090;2022-11-14T07:41:01;16.42;;;10.45;;
37763;SDS011;23602;51.084;7.090;2022-11-14T07:43:29;17.20;;;9.85;;
37763;SDS011;23602;51.084;7.090;2022-11-14T07:46:09;18.45;;;10.82;;
37763;SDS011;23602;51.084;7.090;2022-11-14T07:49:07;18.77;;;11.18;;
37763;SDS011;23602;51.084;7.090;2022-11-14T07:51:41;24.85;;;13.02;;
37763;SDS011;23602;51.084;7.090;2022-11-14T07:57:25;21.17;;;12.50;;
37763;SDS011;23602;51.084;7.090;2022-11-14T08:00:07;21.17;;;12.40;;
37763;SDS011;23602;51.084;7.090;2022-11-14T08:02:42;21.38;;;13.00;;
37763;SDS011;23602;51.084;7.090;2022-11-14T08:05:10;23.02;;;12.68;;
37763;SDS011;23602;51.084;7.090;2022-11-14T08:07:40;20.88;;;13.23;;
37763;SDS011;23602;51.084;7.090;2022-11-14T08:10:06;24.25;;;13.35;;
37763;SDS011;23602;51.084;7.090;2022-11-14T08:12:38;25.02;;;14.25;;
37763;SDS011;23602;51.084;7.090;2022-11-14T08:15:12;25.45;;;13.75;;
37763;SDS011;23602;51.084;7.090;2022-11-14T08:17:46;24.20;;;14.55;;
37763;SDS011;23602;51.084;7.090;2022-11-14T08:20:14;23.70;;;14.05;;
37763;SDS011;23602;51.084;7.090;2022-11-14T08:28:38;28.48;;;15.25;;
37763;SDS011;23602;51.084;7.090;2022-11-14T08:31:04;22.80;;;14.10;;
37763;SDS011;23602;51.084;7.090;2022-11-14T08:36:16;26.27;;;14.02;;
37763;SDS011;23602;51.084;7.090;2022-11-14T08:38:45;25.02;;;14.25;;
37763;SDS011;23602;51.084;7.090;2022-11-14T08:41:13;29.17;;;15.40;;
37763;SDS011;23602;51.084;7.090;2022-11-14T08:43:39;26.02;;;14.68;;
37763;SDS011;23602;51.084;7.090;2022-11-14T08:46:05;25.00;;;14.57;;
37763;SDS011;23602;51.084;7.090;2022-11-14T08:48:33;28.48;;;14.93;;
37763;SDS011;23602;51.084;7.090;2022-11-14T08:51:02;27.63;;;16.10;;
37763;SDS011;23602;51.084;7.090;2022-11-14T08:53:29;29.20;;;15.90;;
37763;SDS011;23602;51.084;7.090;2022-11-14T08:56:07;25.67;;;15.52;;
37763;SDS011;23602;51.084;7.090;2022-11-14T08:58:36;31.92;;;16.92;;
37763;SDS011;23602;51.084;7.090;2022-11-14T09:01:05;27.70;;;15.20;;
37763;SDS011;23602;51.084;7.090;2022-11-14T09:03:43;26.92;;;15.73;;
37763;SDS011;23602;51.084;7.090;2022-11-14T09:06:08;32.05;;;16.08;;
37763;SDS011;23602;51.084;7.090;2022-11-14T09:08:39;26.40;;;15.68;;
37763;SDS011;23602;51.084;7.090;2022-11-14T09:11:04;26.05;;;14.65;;
37763;SDS011;23602;51.084;7.090;2022-11-14T09:13:36;25.88;;;14.35;;
37763;SDS011;23602;51.084;7.090;2022-11-14T09:16:03;22.95;;;14.07;;
37763;SDS011;23602;51.084;7.090;2022-11-14T09:18:29;26.17;;;14.02;;
37763;SDS011;23602;51.084;7.090;2022-11-14T09:21:00;22.23;;;13.30;;
37763;SDS011;23602;51.084;7.090;2022-11-14T09:23:27;21.83;;;13.55;;
37763;SDS011;23602;51.084;7.090;2022-11-14T09:25:56;23.27;;;13.90;;
37763;SDS011;23602;51.084;7.090;2022-11-14T09:28:37;23.73;;;13.18;;
37763;SDS011;23602;51.084;7.090;2022-11-14T09:33:48;24.35;;;14.68;;
37763;SDS011;23602;51.084;7.090;2022-11-14T09:36:22;19.95;;;13.55;;
37763;SDS011;23602;51.084;7.090;2022-11-14T09:38:49;22.10;;;13.25;;
37763;SDS011;23602;51.084;7.090;2022-11-14T09:46:41;21.05;;;12.13;;
37763;SDS011;23602;51.084;7.090;2022-11-14T09:49:58;20.77;;;12.25;;
37763;SDS011;23602;51.084;7.090;2022-11-14T09:52:53;23.58;;;13.13;;
37763;SDS011;23602;51.084;7.090;2022-11-14T09:55:22;21.20;;;12.73;;
37763;SDS011;23602;51.084;7.090;2022-11-14T09:58:14;21.15;;;13.55;;
37763;SDS011;23602;51.084;7.090;2022-11-14T10:01:04;20.50;;;11.82;;
37763;SDS011;23602;51.084;7.090;2022-11-14T10:06:34;23.10;;;13.23;;
37763;SDS011;23602;51.084;7.090;2022-11-14T10:09:22;23.48;;;12.40;;
37763;SDS011;23602;51.084;7.090;2022-11-14T10:18:37;21.10;;;12.60;;
37763;SDS011;23602;51.084;7.090;2022-11-14T10:27:01;20.73;;;11.32;;
37763;SDS011;23602;51.084;7.090;2022-11-14T10:35:15;18.90;;;11.43;;
37763;SDS011;23602;51.084;7.090;2022-11-14T10:37:54;18.50;;;11.73;;
37763;SDS011;23602;51.084;7.090;2022-11-14T10:41:04;19.52;;;11.80;;
37763;SDS011;23602;51.084;7.090;2022-11-14T10:43:34;25.42;;;12.63;;
37763;SDS011;23602;51.084;7.090;2022-11-14T10:48:43;18.10;;;11.85;;
37763;SDS011;23602;51.084;7.090;2022-11-14T10:51:28;20.95;;;12.07;;
37763;SDS011;23602;51.084;7.090;2022-11-14T10:56:33;20.52;;;11.73;;
37763;SDS011;23602;51.084;7.090;2022-11-14T10:59:07;20.55;;;12.02;;
37763;SDS011;23602;51.084;7.090;2022-11-14T11:09:33;23.73;;;13.02;;
37763;SDS011;23602;51.084;7.090;2022-11-14T11:12:20;18.92;;;11.68;;
37763;SDS011;23602;51.084;7.090;2022-11-14T11:14:48;19.63;;;11.73;;
37763;SDS011;23602;51.084;7.090;2022-11-14T11:17:32;19.30;;;11.50;;
37763;SDS011;23602;51.084;7.090;2022-11-14T11:20:24;19.42;;;12.70;;
37763;SDS011;23602;51.084;7.090;2022-11-14T11:23:04;21.73;;;12.05;;
37763;SDS011;23602;51.084;7.090;2022-11-14T11:25:34;17.35;;;10.90;;
37763;SDS011;23602;51.084;7.090;2022-11-14T11:28:21;18.27;;;12.50;;
37763;SDS011;23602;51.084;7.090;2022-11-14T11:30:56;22.13;;;13.55;;
37763;SDS011;23602;51.084;7.090;2022-11-14T11:33:27;17.65;;;11.02;;
37763;SDS011;23602;51.084;7.090;2022-11-14T11:36:22;20.60;;;12.43;;
37763;SDS011;23602;51.084;7.090;2022-11-14T11:38:49;24.38;;;13.50;;
37763;SDS011;23602;51.084;7.090;2022-11-14T11:44:26;22.48;;;12.10;;
37763;SDS011;23602;51.084;7.090;2022-11-14T11:47:07;18.48;;;11.07;;
37763;SDS011;23602;51.084;7.090;2022-11-14T11:49:45;18.23;;;11.50;;
37763;SDS011;23602;51.084;7.090;2022-11-14T11:54:59;18.80;;;12.10;;
37763;SDS011;23602;51.084;7.090;2022-11-14T11:57:30;18.17;;;11.73;;
37763;SDS011;23602;51.084;7.090;2022-11-14T12:00:13;16.88;;;11.23;;
37763;SDS011;23602;51.084;7.090;2022-11-14T12:02:45;20.90;;;11.05;;
37763;SDS011;23602;51.084;7.090;2022-11-14T12:05:30;16.15;;;10.38;;
37763;SDS011;23602;51.084;7.090;2022-11-14T12:08:00;21.15;;;10.82;;
37763;SDS011;23602;51.084;7.090;2022-11-14T12:10:34;15.68;;;10.15;;
37763;SDS011;23602;51.084;7.090;2022-11-14T12:30:59;20.42;;;10.68;;
37763;SDS011;23602;51.084;7.090;2022-11-14T12:33:34;18.02;;;10.95;;
37763;SDS011;23602;51.084;7.090;2022-11-14T12:36:18;20.63;;;12.18;;
37763;SDS011;23602;51.084;7.090;2022-11-14T12:38:45;19.85;;;10.77;;
37763;SDS011;23602;51.084;7.090;2022-11-14T12:41:20;19.80;;;11.25;;
37763;SDS011;23602;51.084;7.090;2022-11-14T12:43:53;18.90;;;11.50;;
37763;SDS011;23602;51.084;7.090;2022-11-14T12:49:37;16.90;;;10.25;;
37763;SDS011;23602;51.084;7.090;2022-11-14T13:01:26;17.40;;;11.32;;
37763;SDS011;23602;51.084;7.090;2022-11-14T13:04:12;19.60;;;11.63;;
37763;SDS011;23602;51.084;7.090;2022-11-14T13:09:37;19.48;;;11.45;;
37763;SDS011;23602;51.084;7.090;2022-11-14T13:15:46;14.65;;;10.60;;
37763;SDS011;23602;51.084;7.090;2022-11-14T13:27:22;18.38;;;11.15;;
37763;SDS011;23602;51.084;7.090;2022-11-14T13:29:56;15.68;;;11.05;;
37763;SDS011;23602;51.084;7.090;2022-11-14T13:43:58;24.40;;;11.20;;
37763;SDS011;23602;51.084;7.090;2022-11-14T13:46:41;18.55;;;11.27;;
37763;SDS011;23602;51.084;7.090;2022-11-14T13:52:16;18.40;;;11.48;;
37763;SDS011;23602;51.084;7.090;2022-11-14T13:54:47;16.85;;;10.85;;
37763;SDS011;23602;51.084;7.090;2022-11-14T14:02:31;18.40;;;11.45;;
37763;SDS011;23602;51.084;7.090;2022-11-14T14:19:22;18.95;;;11.88;;
37763;SDS011;23602;51.084;7.090;2022-11-14T14:22:10;19.27;;;12.38;;
37763;SDS011;23602;51.084;7.090;2022-11-14T14:28:03;19.17;;;11.50;;
37763;SDS011;23602;51.084;7.090;2022-11-14T14:30:35;21.27;;;12.35;;
37763;SDS011;23602;51.084;7.090;2022-11-14T14:33:11;18.15;;;11.55;;
37763;SDS011;23602;51.084;7.090;2022-11-14T14:35:39;19.80;;;11.85;;
37763;SDS011;23602;51.084;7.090;2022-11-14T14:38:22;18.35;;;11.98;;
37763;SDS011;23602;51.084;7.090;2022-11-14T14:40:50;18.70;;;11.55;;
37763;SDS011;23602;51.084;7.090;2022-11-14T14:43:31;20.45;;;11.95;;
37763;SDS011;23602;51.084;7.090;2022-11-14T14:46:13;20.17;;;12.50;;
37763;SDS011;23602;51.084;7.090;2022-11-14T14:48:42;20.58;;;10.65;;
37763;SDS011;23602;51.084;7.090;2022-11-14T14:51:27;17.77;;;11.88;;
37763;SDS011;23602;51.084;7.090;2022-11-14T14:54:00;20.15;;;11.68;;
37763;SDS011;23602;51.084;7.090;2022-11-14T14:56:26;20.35;;;12.45;;
37763;SDS011;23602;51.084;7.090;2022-11-14T14:58:52;18.73;;;11.60;;
37763;SDS011;23602;51.084;7.090;2022-11-14T15:01:19;17.23;;;11.45;;
37763;SDS011;23602;51.084;7.090;2022-11-14T15:04:06;20.50;;;11.80;;
37763;SDS011;23602;51.084;7.090;2022-11-14T15:06:33;17.80;;;11.55;;
37763;SDS011;23602;51.084;7.090;2022-11-14T15:09:12;19.63;;;12.25;;
37763;SDS011;23602;51.084;7.090;2022-11-14T15:11:48;18.60;;;12.25;;
37763;SDS011;23602;51.084;7.090;2022-11-14T15:14:22;18.27;;;11.98;;
37763;SDS011;23602;51.084;7.090;2022-11-14T15:17:03;18.05;;;12.57;;
37763;SDS011;23602;51.084;7.090;2022-11-14T15:19:39;18.88;;;12.07;;
37763;SDS011;23602;51.084;7.090;2022-11-14T15:24:34;17.88;;;11.57;;
37763;SDS011;23602;51.084;7.090;2022-11-14T15:27:02;15.57;;;10.43;;
37763;SDS011;23602;51.084;7.090;2022-11-14T15:29:29;23.00;;;12.73;;
37763;SDS011;23602;51.084;7.090;2022-11-14T15:34:25;22.48;;;13.02;;
37763;SDS011;23602;51.084;7.090;2022-11-14T15:39:40;19.52;;;12.00;;
37763;SDS011;23602;51.084;7.090;2022-11-14T15:44:51;17.73;;;11.75;;
37763;SDS011;23602;51.084;7.090;2022-11-14T15:47:23;21.17;;;12.30;;
37763;SDS011;23602;51.084;7.090;2022-11-14T15:50:05;18.02;;;11.88;;
37763;SDS011;23602;51.084;7.090;2022-11-14T15:52:56;15.98;;;11.27;;
37763;SDS011;23602;51.084;7.090;2022-11-14T15:55:24;20.48;;;11.65;;
37763;SDS011;23602;51.084;7.090;2022-11-14T15:57:50;17.58;;;12.10;;
37763;SDS011;23602;51.084;7.090;2022-11-14T16:00:16;18.63;;;12.27;;
37763;SDS011;23602;51.084;7.090;2022-11-14T16:02:49;23.50;;;11.07;;
37763;SDS011;23602;51.084;7.090;2022-11-14T16:05:19;16.15;;;11.68;;
37763;SDS011;23602;51.084;7.090;2022-11-14T16:07:48;17.15;;;11.10;;
37763;SDS011;23602;51.084;7.090;2022-11-14T16:10:21;18.15;;;12.30;;
37763;SDS011;23602;51.084;7.090;2022-11-14T16:12:50;20.10;;;12.00;;
37763;SDS011;23602;51.084;7.090;2022-11-14T16:15:16;16.38;;;11.88;;
37763;SDS011;23602;51.084;7.090;2022-11-14T16:17:44;17.15;;;11.90;;
37763;SDS011;23602;51.084;7.090;2022-11-14T16:20:28;19.55;;;12.30;;
37763;SDS011;23602;51.084;7.090;2022-11-14T16:22:56;20.30;;;11.95;;
37763;SDS011;23602;51.084;7.090;2022-11-14T16:25:25;16.73;;;11.70;;
37763;SDS011;23602;51.084;7.090;2022-11-14T16:27:52;19.98;;;12.27;;
37763;SDS011;23602;51.084;7.090;2022-11-14T16:30:21;18.23;;;11.43;;
37763;SDS011;23602;51.084;7.090;2022-11-14T16:32:48;16.25;;;10.15;;
37763;SDS011;23602;51.084;7.090;2022-11-14T16:35:16;17.55;;;10.68;;
37763;SDS011;23602;51.084;7.090;2022-11-14T16:37:48;16.67;;;11.05;;
37763;SDS011;23602;51.084;7.090;2022-11-14T16:40:15;17.65;;;11.18;;
37763;SDS011;23602;51.084;7.090;2022-11-14T16:42:46;16.42;;;10.90;;
37763;SDS011;23602;51.084;7.090;2022-11-14T16:45:13;17.23;;;11.30;;
37763;SDS011;23602;51.084;7.090;2022-11-14T16:47:41;16.00;;;11.35;;
37763;SDS011;23602;51.084;7.090;2022-11-14T16:50:07;17.63;;;11.98;;
37763;SDS011;23602;51.084;7.090;2022-11-14T16:52:33;21.58;;;10.65;;
37763;SDS011;23602;51.084;7.090;2022-11-14T16:54:59;17.25;;;13.05;;
37763;SDS011;23602;51.084;7.090;2022-11-14T16:57:24;17.77;;;11.75;;
37763;SDS011;23602;51.084;7.090;2022-11-14T16:59:50;19.27;;;11.48;;
37763;SDS011;23602;51.084;7.090;2022-11-14T17:02:16;15.00;;;11.25;;
37763;SDS011;23602;51.084;7.090;2022-11-14T17:04:45;18.52;;;11.73;;
37763;SDS011;23602;51.084;7.090;2022-11-14T17:07:13;18.15;;;12.05;;
37763;SDS011;23602;51.084;7.090;2022-11-14T17:09:39;16.75;;;11.70;;
37763;SDS011;23602;51.084;7.090;2022-11-14T17:12:08;19.25;;;13.18;;
37763;SDS011;23602;51.084;7.090;2022-11-14T17:14:41;18.17;;;11.43;;
37763;SDS011;23602;51.084;7.090;2022-11-14T17:17:06;20.40;;;11.65;;
37763;SDS011;23602;51.084;7.090;2022-11-14T17:19:32;17.48;;;11.10;;
37763;SDS011;23602;51.084;7.090;2022-11-14T17:21:57;18.63;;;11.65;;
37763;SDS011;23602;51.084;7.090;2022-11-14T17:24:23;19.52;;;12.68;;
37763;SDS011;23602;51.084;7.090;2022-11-14T17:26:48;19.83;;;13.02;;
37763;SDS011;23602;51.084;7.090;2022-11-14T17:29:20;16.95;;;12.00;;
37763;SDS011;23602;51.084;7.090;2022-11-14T17:31:57;22.45;;;13.73;;
37763;SDS011;23602;51.084;7.090;2022-11-14T17:36:52;23.92;;;13.75;;
37763;SDS011;23602;51.084;7.090;2022-11-14T17:39:20;18.35;;;13.63;;
37763;SDS011;23602;51.084;7.090;2022-11-14T17:44:12;18.13;;;11.98;;
37763;SDS011;23602;51.084;7.090;2022-11-14T17:46:38;18.15;;;13.10;;